HRYR

Kigali International Airport

Kigali, Rwanda
HRYR 241700Z 2418/2524 34009KT 9999 SCT025 SCT100 FM 242000 30005KT SCT026 SCT100 BECMG 2503/2506 VRB03KT SCT025 BKN100 FM 250900 14008KT SCT025 SCT100 TEMPO 2512/2517 17010G20KT TS FEW023CB SCT025 FM 252100 32006KT SCT025
Issued Valid From Valid To
Sep-24 @ 17:00 UTC
(6 hours ago)
Sep-24 @ 18:00 UTC
(5 hours ago)
Sep-26 @ 00:00 UTC
(-1 days ago)
Expired Click to View Sep-24 @ 18:00 to Sep-24 @ 20:00
HRYR 241700Z 2418/2524 34009KT 9999 SCT025 SCT100 FM 242000 30005KT SCT026 SCT100
Wind Visibility Clouds
340° at 9 knots 10,000+ meters
  • Scattered at 2,500' AGL
  • Scattered at 10,000' AGL
From Sep-24 @ 20:00 to Sep-25 @ 03:00
Wind Clouds
300° at 5 knots
  • Scattered at 2,600' AGL
  • Scattered at 10,000' AGL
Becoming Sep-25 @ 03:00 to Sep-25 @ 09:00
BECMG 2503/2506 VRB03KT SCT025 BKN100 FM 250900 14008KT SCT025 SCT100
Wind Clouds
Variable at 3 knots
  • Scattered at 2,500' AGL
  • Broken at 10,000' AGL
From Sep-25 @ 09:00 to Sep-25 @ 21:00
Wind Clouds
140° at 8 knots
  • Scattered at 2,500' AGL
  • Scattered at 10,000' AGL
Temporary Sep-25 @ 12:00 to Sep-25 @ 17:00
TEMPO 2512/2517 17010G20KT TS FEW023CB SCT025 FM 252100 32006KT SCT025
Wind Clouds Conditions
170° at 10 knots
 Gusting to 20 knots
  • Few at 2,300' AGL
  • Scattered at 2,500' AGL
  • Thunderstorm
From Sep-25 @ 21:00 to Sep-26 @ 00:00
Wind Clouds
320° at 6 knots
  • Scattered at 2,500' AGL
HRYR 241700Z 2418/2524 34009KT 9999 SCT025 SCT100 FM 242000 30005KT SCT026 SCT100 BECMG 2503/2506 VRB03KT SCT025 BKN100 FM 250900 14008KT SCT025 SCT100 TEMPO 2512/2517 17010G20KT TS FEW023CB SCT025 FM 252100 32006KT SCT025
Issued Sep-24 @ 17:00 UTC
(6 hours ago)
Valid From Sep-24 @ 18:00 UTC
(5 hours ago)
Valid To Sep-26 @ 00:00 UTC
(-1 days ago)
Sep-24 @ 18:00 - Sep-24 @ 20:00
Wind Visibility
340° at 9 knots 10,000+ meters
Clouds
  • Scattered at 2,500' AGL
  • Scattered at 10,000' AGL
From Sep-24 @ 20:00 - Sep-25 @ 03:00
Wind
300° at 5 knots
Clouds
  • Scattered at 2,600' AGL
  • Scattered at 10,000' AGL
Becoming Sep-25 @ 03:00 - Sep-25 @ 09:00
Wind
Variable at 3 knots
Clouds
  • Scattered at 2,500' AGL
  • Broken at 10,000' AGL
From Sep-25 @ 09:00 - Sep-25 @ 21:00
Wind
140° at 8 knots
Clouds
  • Scattered at 2,500' AGL
  • Scattered at 10,000' AGL
Temporary Sep-25 @ 12:00 - Sep-25 @ 17:00
Wind
170° at 10 knots
 Gusting to 20 knots
Clouds
  • Few at 2,300' AGL
  • Scattered at 2,500' AGL
Conditions
  • Thunderstorm
From Sep-25 @ 21:00 - Sep-26 @ 00:00
Wind
320° at 6 knots
Clouds
  • Scattered at 2,500' AGL